EDV5550 KRDU-KSDF
Flight info
| Callsign | EDV5550 |
|---|---|
| Flight time | N/A |
| Altitude | 34000 |
| Route | SHPRD4 SHPRD HMV LAFOX LEDDL1 |
| Aircraft | CRJ9/M-SDFGIRWY/S |
Departure
| Time | 2026-04-29 23:25 |
|---|---|
| Airport | Raleigh-Durham International Airport (KRDU) |
Arrival
| Time | N/A |
|---|---|
| Airport | Louisville Muhammad Ali International Airport (KSDF) |
| Time | Latitude | Longitude | Altitude | Speed | Heading |
|---|---|---|---|---|---|
| 2026-04-29 23:04 | 35.87424 | -78.78910 | 431 ft | 0 kts | 333° |
| 2026-04-29 23:20 | 35.87418 | -78.78907 | 433 ft | 2 kts | 332° |
| 2026-04-29 23:20 | 35.87404 | -78.78898 | 425 ft | 2 kts | 333° |
| 2026-04-29 23:20 | 35.87389 | -78.78889 | 422 ft | 2 kts | 334° |
| 2026-04-29 23:20 | 35.87374 | -78.78881 | 427 ft | 2 kts | 342° |
| 2026-04-29 23:21 | 35.87360 | -78.78881 | 425 ft | 1 kts | 37° |
| 2026-04-29 23:21 | 35.87359 | -78.78882 | 425 ft | 0 kts | 40° |
| 2026-04-29 23:22 | 35.87380 | -78.78820 | 433 ft | 13 kts | 72° |
| 2026-04-29 23:22 | 35.87436 | -78.78726 | 423 ft | 15 kts | 46° |
| 2026-04-29 23:22 | 35.87517 | -78.78626 | 431 ft | 18 kts | 45° |
| 2026-04-29 23:23 | 35.87603 | -78.78520 | 431 ft | 18 kts | 45° |
| 2026-04-29 23:23 | 35.87694 | -78.78407 | 418 ft | 20 kts | 45° |
| 2026-04-29 23:23 | 35.87794 | -78.78283 | 424 ft | 20 kts | 45° |
| 2026-04-29 23:23 | 35.87892 | -78.78162 | 415 ft | 21 kts | 45° |
| 2026-04-29 23:24 | 35.87963 | -78.78061 | 425 ft | 11 kts | 76° |
| 2026-04-29 23:24 | 35.87938 | -78.77983 | 425 ft | 10 kts | 125° |
| 2026-04-29 23:24 | 35.87893 | -78.77974 | 424 ft | 0 kts | 222° |
| 2026-04-29 23:24 | 35.87736 | -78.78165 | 426 ft | 71 kts | 225° |
| 2026-04-29 23:25 | 35.87209 | -78.78817 | 431 ft | 141 kts | 225° |
| 2026-04-29 23:25 | 35.86431 | -78.79778 | 807 ft | 165 kts | 225° |
| 2026-04-29 23:25 | 35.85636 | -78.80778 | 1732 ft | 162 kts | 226° |
| 2026-04-29 23:25 | 35.84855 | -78.81783 | 2527 ft | 166 kts | 226° |
| 2026-04-29 23:26 | 35.84015 | -78.82860 | 3047 ft | 180 kts | 232° |
| 2026-04-29 23:26 | 35.83400 | -78.84327 | 3340 ft | 211 kts | 253° |
| 2026-04-29 23:26 | 35.83131 | -78.86194 | 3889 ft | 230 kts | 270° |
| 2026-04-29 23:26 | 35.83249 | -78.88213 | 4599 ft | 244 kts | 274° |
| 2026-04-29 23:27 | 35.83394 | -78.90345 | 5370 ft | 252 kts | 274° |
| 2026-04-29 23:27 | 35.83509 | -78.92486 | 6432 ft | 249 kts | 274° |
| 2026-04-29 23:27 | 35.83631 | -78.94630 | 7266 ft | 254 kts | 275° |
| 2026-04-29 23:27 | 35.83747 | -78.96825 | 8100 ft | 257 kts | 273° |
| 2026-04-29 23:28 | 35.83778 | -78.98274 | 8817 ft | 254 kts | 272° |
| 2026-04-29 23:28 | 35.83773 | -79.00460 | 9739 ft | 257 kts | 271° |
| 2026-04-29 23:28 | 35.83741 | -79.02667 | 10535 ft | 259 kts | 270° |
| 2026-04-29 23:28 | 35.83716 | -79.04912 | 11253 ft | 265 kts | 270° |
| 2026-04-29 23:29 | 35.83705 | -79.08088 | 11507 ft | 299 kts | 271° |
| 2026-04-29 23:29 | 35.83696 | -79.09858 | 11713 ft | 312 kts | 271° |
| 2026-04-29 23:29 | 35.83675 | -79.13432 | 12672 ft | 318 kts | 270° |